createdAt,value
2023-04-07T06:20:38.233Z,1010.21
2023-04-07T06:30:38.368Z,1010.30
2023-04-07T06:40:38.219Z,1010.19
2023-04-07T06:50:38.288Z,1010.32
2023-04-07T07:00:38.373Z,1010.40
2023-04-07T07:10:38.314Z,1010.37
2023-04-07T07:20:38.278Z,1010.35
2023-04-07T07:30:38.339Z,1010.52
2023-04-07T07:40:38.174Z,1010.45
2023-04-07T07:50:38.266Z,1010.64
2023-04-07T08:00:38.328Z,1010.60
2023-04-07T08:10:38.313Z,1010.65
2023-04-07T08:20:38.257Z,1010.69
2023-04-07T08:30:38.328Z,1010.72
2023-04-07T08:40:38.304Z,1010.69
2023-04-07T08:50:38.350Z,1010.79
2023-04-07T09:00:38.311Z,1010.66
2023-04-07T09:10:38.185Z,1010.62
2023-04-07T09:20:38.439Z,1010.71
2023-04-07T09:30:38.193Z,1010.74
2023-04-07T09:40:38.256Z,1010.65
2023-04-07T09:50:38.330Z,1010.60
2023-04-07T10:00:38.237Z,1010.70
2023-04-07T10:10:38.502Z,1010.82
2023-04-07T10:20:38.434Z,1010.72
2023-04-07T10:30:38.639Z,1010.63
2023-04-07T10:40:38.684Z,1010.77
2023-04-07T10:50:38.535Z,1010.68
2023-04-07T11:00:38.810Z,1010.74
2023-04-07T11:10:38.593Z,1010.74
2023-04-07T11:20:38.725Z,1010.71
2023-04-07T11:30:38.587Z,1010.64
2023-04-07T11:40:38.596Z,1010.79
2023-04-07T11:50:38.661Z,1010.90
2023-04-07T12:00:38.811Z,1010.83
2023-04-07T12:10:38.861Z,1010.85
2023-04-07T12:20:39.040Z,1010.80
2023-04-07T12:30:38.679Z,1010.91
2023-04-07T12:40:39.675Z,1010.78
2023-04-07T12:50:39.710Z,1010.73
2023-04-07T13:00:38.882Z,1010.81
2023-04-07T13:10:38.838Z,1010.66
2023-04-07T13:20:38.734Z,1010.70
2023-04-07T13:30:38.918Z,1010.77
2023-04-07T13:40:38.759Z,1010.73
2023-04-07T13:50:38.900Z,1010.73
2023-04-07T14:00:38.978Z,1010.73
2023-04-07T14:10:39.032Z,1010.53
2023-04-07T14:20:38.759Z,1010.67
2023-04-07T14:30:38.866Z,1010.62
2023-04-07T14:40:38.925Z,1010.71
2023-04-07T14:50:38.915Z,1010.65
2023-04-07T15:00:38.989Z,1010.65
2023-04-07T15:10:38.766Z,1010.76
2023-04-07T15:20:38.999Z,1010.64
2023-04-07T15:30:39.055Z,1010.73
2023-04-07T15:40:39.133Z,1010.87
2023-04-07T15:50:38.964Z,1010.90
2023-04-07T16:00:38.973Z,1011.07
2023-04-07T16:10:39.112Z,1011.05
2023-04-07T16:20:39.036Z,1011.08
2023-04-07T16:30:39.062Z,1011.31
2023-04-07T16:40:39.008Z,1011.34
2023-04-07T16:50:39.175Z,1011.47
2023-04-07T17:00:38.964Z,1011.83
2023-04-07T17:10:39.105Z,1011.98
2023-04-07T17:20:39.072Z,1012.05
2023-04-07T17:30:39.062Z,1012.36
2023-04-07T17:40:39.112Z,1012.55
2023-04-07T17:50:39.075Z,1012.72
2023-04-07T18:00:39.247Z,1012.84
2023-04-07T18:10:39.014Z,1013.09
2023-04-07T18:20:39.149Z,1013.14
2023-04-07T18:30:39.328Z,1013.33
2023-04-07T18:40:39.563Z,1013.35
2023-04-07T18:50:39.875Z,1013.49
2023-04-07T19:00:39.652Z,1013.71
2023-04-07T19:10:39.783Z,1013.84
2023-04-07T19:20:40.057Z,1013.87
